Terminal Aerodrome Forecast
Issued by NWS

Home | Current Version | Previous Version | Text Only | Print | Product List | Glossary On
Versions: 1 2 3 4 5 6 7 8 9 10 11 12 13 14 15 16 17 18 19 20 21 22 23 24 25 26 27 28 29
000
FTUS45 KGJT 041120
TAFEGE
TAF
KEGE 041120Z 0412/0512 07004KT P6SM SCT120
     FM041900 25010KT P6SM SCT090 BKN120
     FM042100 25010KT P6SM VCTS SCT060CB BKN100
      TEMPO 0421/0424 VRB20G35KT -TSRA
     FM050300 07008KT P6SM BKN120
      AMD LTD TO CLD VIS AND WIND TIL 041300=

USA.gov is the U.S. government's official web portal to all federal, state and local government web resources and services.